ESDF/RNB METAR and TAF weather

Enter ICAO airport designator
Station Type Date Time Source
ESDF METAR 2021/07/24 20:50 UTC NOAA

ESDF 242050Z AUTO 08003KT 9999 NCD 17/14 Q1017


Station Type Date Time Source
ESDF Decoded METAR 2021/07/24 20:50 UTC NOAA

Ronneby, Sweden (ESDF) 56-16N 015-17E 74M
Jul 24, 2021 - 04:50 PM EDT / 2021.07.24 2050 UTC
Wind: from the E (080 degrees) at 3 MPH (3 KT):0
Visibility: greater than 7 mile(s):0
Temperature: 62 F (17 C)
Dew Point: 57 F (14 C)
Relative Humidity: 82%
Pressure (altimeter): 30.03 in. Hg (1017 hPa)
ob: ESDF 242050Z AUTO 08003KT 9999 NCD 17/14 Q1017
cycle: 21

Station Type Date Time Source
ESDF TAF 2018/05/29 12:27 UTC NOAA

TAF TAF ESDF 291425Z 2912/2924 07008KT CAVOK
RMK MIL

Example: see airport list